createdAt,value
2022-08-11T00:03:54.587Z,1.48
2022-08-11T00:06:25.855Z,1.58
2022-08-11T00:08:53.847Z,1.50
2022-08-11T00:11:21.271Z,1.70
2022-08-11T00:13:49.650Z,1.40
2022-08-11T00:16:19.125Z,1.20
2022-08-11T00:18:48.117Z,1.38
2022-08-11T00:21:16.656Z,1.30
2022-08-11T00:39:13.142Z,1.00
2022-08-11T00:41:44.465Z,1.45
2022-08-11T00:44:31.780Z,1.75
2022-08-11T00:47:15.020Z,1.67
2022-08-11T00:49:51.953Z,1.40
2022-08-11T00:52:32.983Z,1.70
2022-08-11T01:11:11.061Z,1.42
2022-08-11T01:14:19.066Z,1.98
2022-08-11T01:17:19.630Z,1.50
2022-08-11T01:20:45.248Z,1.88
2022-08-11T01:23:39.286Z,1.88
2022-08-11T01:34:33.351Z,2.00
2022-08-11T01:37:26.423Z,1.50
2022-08-11T01:40:25.692Z,1.80
2022-08-11T01:43:09.501Z,1.83
2022-08-11T01:45:42.224Z,1.70
2022-08-11T01:48:18.445Z,1.67
2022-08-11T01:51:02.301Z,1.73
2022-08-11T01:59:09.652Z,1.80
2022-08-11T02:01:45.389Z,1.85
2022-08-11T02:04:24.046Z,1.85
2022-08-11T02:07:00.309Z,1.52
2022-08-11T02:09:51.685Z,1.48
2022-08-11T02:12:35.935Z,2.00
2022-08-11T02:19:23.351Z,1.75
2022-08-11T02:21:55.178Z,1.67
2022-08-11T02:27:01.438Z,1.80
2022-08-11T02:29:33.866Z,2.10
2022-08-11T02:32:24.953Z,2.22
2022-08-11T02:35:00.807Z,1.73
2022-08-11T02:42:41.232Z,2.15
2022-08-11T02:45:30.191Z,1.90
2022-08-11T02:48:03.409Z,1.83
2022-08-11T02:50:34.687Z,2.53
2022-08-11T02:53:12.295Z,1.77
2022-08-11T02:55:57.262Z,1.98
2022-08-11T02:58:36.058Z,2.13
2022-08-11T03:06:13.899Z,2.10
2022-08-11T03:08:53.778Z,2.35
2022-08-11T03:11:42.230Z,2.30
2022-08-11T03:14:14.962Z,2.45
2022-08-11T03:16:54.168Z,1.98
2022-08-11T03:19:28.523Z,2.35
2022-08-11T03:22:33.836Z,2.08
2022-08-11T03:29:46.851Z,2.15
2022-08-11T03:32:23.960Z,2.20
2022-08-11T03:34:53.395Z,2.40
2022-08-11T03:37:30.224Z,2.30
2022-08-11T03:40:02.697Z,2.65
2022-08-11T03:42:42.281Z,1.90
2022-08-11T03:45:21.265Z,2.53
2022-08-11T03:53:22.573Z,2.25
2022-08-11T03:56:30.521Z,2.00
2022-08-11T03:59:21.735Z,2.08
2022-08-11T04:02:25.144Z,2.13
2022-08-11T04:05:15.964Z,2.03
2022-08-11T04:08:08.270Z,2.13
2022-08-11T04:16:12.054Z,2.42
2022-08-11T04:19:14.819Z,2.55
2022-08-11T04:22:18.411Z,2.15
2022-08-11T04:25:06.555Z,3.10
2022-08-11T04:27:58.835Z,2.67
2022-08-11T04:30:32.367Z,2.47
2022-08-11T04:39:10.167Z,2.25
2022-08-11T04:42:06.539Z,2.60
2022-08-11T04:45:02.697Z,2.80
2022-08-11T04:48:04.407Z,2.20
2022-08-11T04:50:45.178Z,2.70
2022-08-11T04:53:45.179Z,2.83
2022-08-11T05:01:36.550Z,3.00
2022-08-11T05:04:35.504Z,2.30
2022-08-11T05:07:21.136Z,2.70
2022-08-11T05:10:12.369Z,2.85
2022-08-11T05:12:44.124Z,2.50
2022-08-11T05:15:15.415Z,2.63
2022-08-11T05:21:22.027Z,2.80
2022-08-11T05:23:55.374Z,2.63
2022-08-11T05:26:48.055Z,2.78
2022-08-11T05:29:40.773Z,2.53
2022-08-11T05:32:11.553Z,2.78
2022-08-11T05:34:44.073Z,2.85
2022-08-11T05:37:26.629Z,2.95
2022-08-11T05:45:15.533Z,2.90
2022-08-11T05:47:42.777Z,3.17
2022-08-11T05:50:13.819Z,2.70
2022-08-11T05:52:46.822Z,2.97
2022-08-11T05:57:49.825Z,2.70
2022-08-11T06:00:22.278Z,3.03
2022-08-11T06:07:55.033Z,3.00
2022-08-11T06:10:28.283Z,2.40
2022-08-11T06:12:54.612Z,2.67
2022-08-11T06:15:21.096Z,2.67
2022-08-11T06:17:48.618Z,2.85
2022-08-11T06:20:17.093Z,2.38
2022-08-11T06:22:44.575Z,2.40
2022-08-11T06:25:12.999Z,2.72
2022-08-11T06:42:52.854Z,3.38
2022-08-11T06:45:36.246Z,2.90
2022-08-11T06:48:06.039Z,2.75
2022-08-11T06:50:32.954Z,2.97
2022-08-11T06:52:59.366Z,2.78
2022-08-11T06:55:55.434Z,2.67
2022-08-11T06:58:20.239Z,2.75
2022-08-11T07:16:26.606Z,2.25
2022-08-11T07:18:58.298Z,2.10
2022-08-11T07:22:00.645Z,2.30
2022-08-11T07:24:16.257Z,2.00
2022-08-11T07:26:54.690Z,2.53
2022-08-11T07:29:21.548Z,2.25
2022-08-11T07:36:56.089Z,2.38
2022-08-11T07:39:25.001Z,2.38
2022-08-11T07:41:53.397Z,2.03
2022-08-11T07:44:20.908Z,2.35
2022-08-11T07:46:48.803Z,2.50
2022-08-11T07:49:14.971Z,2.40
2022-08-11T07:51:42.822Z,2.33
2022-08-11T07:54:16.461Z,2.50
2022-08-11T08:01:49.921Z,2.28
2022-08-11T08:04:17.614Z,2.53
2022-08-11T08:06:44.707Z,2.22
2022-08-11T08:09:11.935Z,2.67
2022-08-11T08:11:38.519Z,2.60
2022-08-11T08:14:05.134Z,2.30
2022-08-11T08:16:31.848Z,2.10
2022-08-11T08:24:07.002Z,2.30
2022-08-11T08:26:33.747Z,3.10
2022-08-11T08:29:02.879Z,3.42
2022-08-11T08:31:29.068Z,2.53
2022-08-11T08:33:55.356Z,3.33
2022-08-11T08:36:23.202Z,2.45
2022-08-11T08:38:52.472Z,2.00
2022-08-11T08:41:35.712Z,2.45
2022-08-11T08:48:53.363Z,2.05
2022-08-11T08:51:21.788Z,2.10
2022-08-11T08:53:52.225Z,2.15
2022-08-11T08:56:24.305Z,1.92
2022-08-11T08:58:51.702Z,2.03
2022-08-11T09:01:20.166Z,2.10
2022-08-11T09:04:06.991Z,1.90
2022-08-11T09:06:33.802Z,2.20
2022-08-11T09:14:05.075Z,1.88
2022-08-11T09:16:34.019Z,1.75
2022-08-11T09:19:01.768Z,1.90
2022-08-11T09:21:39.365Z,1.92
2022-08-11T09:24:22.093Z,1.58
2022-08-11T09:26:52.149Z,2.03
2022-08-11T09:29:20.244Z,1.45
2022-08-11T09:35:22.146Z,1.60
2022-08-11T09:37:55.214Z,1.48
2022-08-11T09:40:23.944Z,1.70
2022-08-11T09:45:19.933Z,1.83
2022-08-11T09:47:46.399Z,1.30
2022-08-11T09:50:15.156Z,1.48
2022-08-11T09:53:03.843Z,1.50
2022-08-11T10:00:46.818Z,1.40
2022-08-11T10:03:15.748Z,1.50
2022-08-11T10:05:45.940Z,1.60
2022-08-11T10:08:13.372Z,1.20
2022-08-11T10:10:40.486Z,1.30
2022-08-11T10:14:31.759Z,1.20
2022-08-11T10:16:15.889Z,1.00
2022-08-11T10:24:00.490Z,1.15
2022-08-11T10:26:32.739Z,1.10
2022-08-11T10:29:12.498Z,1.35
2022-08-11T10:31:56.722Z,1.20
2022-08-11T10:34:28.388Z,1.10
2022-08-11T10:36:56.299Z,1.15
2022-08-11T10:39:25.886Z,1.15
2022-08-11T10:46:53.108Z,0.93
2022-08-11T10:49:21.072Z,1.00
2022-08-11T10:51:51.028Z,1.00
2022-08-11T10:54:20.542Z,1.20
2022-08-11T10:56:50.928Z,1.08
2022-08-11T10:59:25.966Z,1.10
2022-08-11T11:01:53.783Z,1.00
2022-08-11T11:04:23.452Z,1.02
2022-08-11T11:11:47.031Z,1.05
2022-08-11T11:14:16.923Z,1.00
2022-08-11T11:19:11.369Z,0.90
2022-08-11T11:21:38.458Z,0.85
2022-08-11T11:24:16.900Z,0.90
2022-08-11T11:26:54.713Z,1.00
2022-08-11T11:35:12.661Z,0.90
2022-08-11T11:37:41.369Z,0.80
2022-08-11T11:40:30.556Z,0.90
2022-08-11T11:42:59.187Z,0.68
2022-08-11T11:45:25.422Z,0.80
2022-08-11T11:47:53.890Z,0.90
2022-08-11T11:50:26.329Z,0.80
2022-08-11T11:58:06.622Z,0.80
2022-08-11T12:00:36.112Z,0.80
2022-08-11T12:03:07.188Z,0.80
2022-08-11T12:08:05.250Z,0.80
2022-08-11T12:10:41.705Z,0.77
2022-08-11T12:13:08.538Z,0.75
2022-08-11T12:23:19.561Z,0.95
2022-08-11T12:25:45.987Z,0.85
2022-08-11T12:28:12.417Z,0.90
2022-08-11T12:30:39.823Z,0.90
2022-08-11T12:33:09.581Z,0.90
2022-08-11T12:35:36.619Z,0.80
2022-08-11T12:38:10.646Z,0.60
2022-08-11T12:43:56.586Z,0.80
2022-08-11T12:46:28.247Z,0.82
2022-08-11T12:48:58.271Z,0.80
2022-08-11T12:51:32.909Z,0.90
2022-08-11T12:54:25.085Z,0.80
2022-08-11T12:56:57.459Z,0.60
2022-08-11T12:59:25.253Z,1.00
2022-08-11T13:01:53.004Z,1.00
2022-08-11T13:11:04.912Z,1.10
2022-08-11T13:13:55.921Z,0.85
2022-08-11T13:16:18.487Z,0.90
2022-08-11T13:18:44.712Z,0.75
2022-08-11T13:21:11.783Z,0.90
2022-08-11T13:23:59.680Z,0.88
2022-08-11T13:26:47.274Z,0.93
2022-08-11T13:34:29.065Z,0.77
2022-08-11T13:36:58.250Z,0.68
2022-08-11T13:39:26.631Z,0.68
2022-08-11T13:41:54.997Z,0.88
2022-08-11T13:44:25.563Z,0.80
2022-08-11T13:46:55.231Z,0.90
2022-08-11T13:49:21.916Z,1.00
2022-08-11T13:59:51.693Z,0.90
2022-08-11T14:02:29.465Z,1.00
2022-08-11T14:04:58.445Z,0.98
2022-08-11T14:07:30.145Z,0.93
2022-08-11T14:09:58.571Z,1.00
2022-08-11T14:12:26.968Z,1.08
2022-08-11T14:15:04.485Z,1.10
2022-08-11T14:17:47.994Z,1.15
2022-08-11T14:26:01.084Z,1.00
2022-08-11T14:28:33.738Z,1.20
2022-08-11T14:31:03.958Z,1.30
2022-08-11T14:34:00.851Z,1.00
2022-08-11T14:36:18.712Z,1.00
2022-08-11T14:38:45.261Z,1.20
2022-08-11T14:46:29.111Z,1.20
2022-08-11T14:48:55.189Z,1.40
2022-08-11T14:51:21.894Z,1.33
2022-08-11T14:53:58.543Z,1.02
2022-08-11T14:56:24.997Z,1.02
2022-08-11T14:58:51.359Z,1.00
2022-08-11T15:01:20.258Z,1.30
2022-08-11T15:06:43.429Z,1.15
2022-08-11T15:09:09.824Z,1.38
2022-08-11T15:11:37.573Z,1.25
2022-08-11T15:14:05.892Z,1.30
2022-08-11T15:19:19.292Z,1.33
2022-08-11T15:21:46.062Z,1.20
2022-08-11T15:24:12.039Z,1.17
2022-08-11T15:31:49.182Z,1.10
2022-08-11T15:34:20.651Z,1.30
2022-08-11T15:36:48.915Z,1.30
2022-08-11T15:39:22.417Z,1.30
2022-08-11T15:41:54.628Z,1.00
2022-08-11T15:44:51.377Z,1.35
2022-08-11T15:47:17.488Z,1.20
2022-08-11T15:57:18.261Z,1.15
2022-08-11T15:59:44.464Z,1.23
2022-08-11T16:02:16.109Z,1.05
2022-08-11T16:04:43.947Z,1.02
2022-08-11T16:07:14.291Z,1.00
2022-08-11T16:09:52.626Z,1.38
2022-08-11T16:12:24.814Z,1.10
2022-08-11T16:17:46.365Z,1.30
2022-08-11T16:20:16.603Z,1.30
2022-08-11T16:23:00.283Z,1.35
2022-08-11T16:27:05.883Z,1.10
2022-08-11T16:28:17.926Z,1.08
2022-08-11T16:30:45.831Z,1.10
2022-08-11T16:33:48.934Z,1.40
2022-08-11T16:41:11.635Z,1.20
2022-08-11T16:43:46.827Z,1.20
2022-08-11T16:46:22.816Z,1.27
2022-08-11T16:48:51.374Z,1.60
2022-08-11T16:51:20.127Z,1.20
2022-08-11T16:54:04.841Z,1.10
2022-08-11T16:56:35.285Z,1.17
2022-08-11T17:01:59.338Z,1.00
2022-08-11T17:04:31.378Z,1.08
2022-08-11T17:06:57.834Z,1.45
2022-08-11T17:09:26.350Z,1.27
2022-08-11T17:11:55.409Z,0.95
2022-08-11T17:14:35.645Z,1.17
2022-08-11T17:17:05.163Z,1.20
2022-08-11T17:20:40.963Z,1.50
2022-08-11T17:26:44.691Z,1.30
2022-08-11T17:29:14.457Z,1.45
2022-08-11T17:31:41.005Z,1.35
2022-08-11T17:34:07.877Z,1.27
2022-08-11T17:36:39.308Z,1.35
2022-08-11T17:39:08.487Z,1.00
2022-08-11T17:41:35.033Z,1.20
2022-08-11T17:57:21.261Z,0.98
2022-08-11T17:59:50.197Z,1.40
2022-08-11T18:02:18.591Z,1.10
2022-08-11T18:04:48.959Z,1.33
2022-08-11T18:07:16.170Z,1.20
2022-08-11T18:09:42.275Z,1.00
2022-08-11T18:12:11.351Z,1.10
2022-08-11T18:19:47.570Z,1.00
2022-08-11T18:22:19.440Z,1.30
2022-08-11T18:24:51.206Z,1.02
2022-08-11T18:27:22.042Z,1.30
2022-08-11T18:29:53.693Z,1.10
2022-08-11T18:32:27.116Z,1.27
2022-08-11T18:35:03.898Z,1.33
2022-08-11T18:42:36.006Z,1.30
2022-08-11T18:45:06.876Z,1.20
2022-08-11T18:47:35.261Z,1.35
2022-08-11T18:50:08.150Z,3.92
2022-08-11T18:52:41.007Z,2.67
2022-08-11T18:57:49.729Z,1.70
2022-08-11T19:03:04.582Z,1.50
2022-08-11T19:06:31.666Z,2.08
2022-08-11T19:08:23.142Z,1.50
2022-08-11T19:10:50.275Z,1.35
2022-08-11T19:13:17.124Z,1.60
2022-08-11T19:15:45.579Z,1.38
2022-08-11T19:18:17.524Z,1.45
2022-08-11T19:25:46.942Z,1.43
2022-08-11T19:28:14.340Z,1.40
2022-08-11T19:30:41.596Z,1.25
2022-08-11T19:33:08.360Z,1.30
2022-08-11T19:35:35.637Z,1.88
2022-08-11T19:38:03.044Z,2.38
2022-08-11T19:40:35.941Z,2.22
2022-08-11T19:45:52.180Z,2.78
2022-08-11T19:48:31.771Z,2.50
2022-08-11T19:51:00.058Z,2.67
2022-08-11T19:53:28.197Z,2.22
2022-08-11T19:55:57.203Z,2.08
2022-08-11T19:58:24.109Z,1.98
2022-08-11T20:00:50.736Z,1.98
2022-08-11T20:08:23.017Z,2.10
2022-08-11T20:10:50.641Z,2.47
2022-08-11T20:13:21.866Z,2.13
2022-08-11T20:15:49.185Z,1.60
2022-08-11T20:18:17.213Z,1.33
2022-08-11T20:20:45.983Z,1.98
2022-08-11T20:23:15.311Z,1.55
2022-08-11T20:30:31.983Z,1.70
2022-08-11T20:32:58.315Z,1.85
2022-08-11T20:35:25.360Z,1.80
2022-08-11T20:37:53.239Z,1.40
2022-08-11T20:40:23.729Z,1.52
2022-08-11T20:42:50.579Z,1.60
2022-08-11T20:45:23.650Z,1.67
2022-08-11T20:50:36.455Z,2.00
2022-08-11T20:53:04.010Z,1.67
2022-08-11T20:55:46.359Z,1.83
2022-08-11T20:58:19.425Z,1.90
2022-08-11T21:00:49.100Z,1.50
2022-08-11T21:03:36.381Z,1.60
2022-08-11T21:06:10.478Z,1.52
2022-08-11T21:11:53.611Z,1.50
2022-08-11T21:14:22.162Z,1.65
2022-08-11T21:16:55.162Z,1.65
2022-08-11T21:20:01.510Z,2.00
2022-08-11T21:22:19.095Z,1.55
2022-08-11T21:24:48.208Z,1.60
2022-08-11T21:27:24.793Z,1.67
2022-08-11T21:29:52.370Z,1.58
2022-08-11T21:37:38.742Z,1.65
2022-08-11T21:40:08.406Z,2.00
2022-08-11T21:42:38.538Z,1.90
2022-08-11T21:45:08.059Z,1.42
2022-08-11T21:47:43.512Z,1.90
2022-08-11T21:50:10.511Z,1.90
2022-08-11T21:52:37.682Z,1.85
2022-08-11T21:59:41.309Z,1.80
2022-08-11T22:04:40.479Z,1.50
2022-08-11T22:07:07.696Z,2.00
2022-08-11T22:09:33.849Z,1.80
2022-08-11T22:12:33.617Z,2.00
2022-08-11T22:14:49.522Z,1.98
2022-08-11T22:22:26.256Z,1.85
2022-08-11T22:24:52.765Z,1.98
2022-08-11T22:27:19.697Z,1.98
2022-08-11T22:29:50.909Z,2.03
2022-08-11T22:32:18.819Z,2.00
2022-08-11T22:34:53.024Z,2.20
2022-08-11T22:37:27.179Z,1.67
2022-08-11T22:44:51.499Z,1.83
2022-08-11T22:47:19.740Z,1.73
2022-08-11T22:49:58.082Z,1.80
2022-08-11T22:52:25.630Z,1.65
2022-08-11T22:54:52.967Z,2.33
2022-08-11T22:57:20.736Z,1.90
2022-08-11T22:59:46.653Z,1.73
2022-08-11T23:02:13.768Z,2.08
2022-08-11T23:07:51.073Z,1.90
2022-08-11T23:10:08.081Z,1.80
2022-08-11T23:12:35.631Z,1.75
2022-08-11T23:15:01.735Z,1.80
2022-08-11T23:17:28.378Z,1.58
2022-08-11T23:20:04.818Z,1.95
2022-08-11T23:22:49.943Z,1.80
2022-08-11T23:30:25.983Z,1.70
2022-08-11T23:32:55.813Z,2.20
2022-08-11T23:35:40.259Z,1.58
2022-08-11T23:38:07.928Z,1.80
2022-08-11T23:40:33.877Z,1.90
2022-08-11T23:43:00.170Z,1.70
2022-08-11T23:45:27.094Z,1.70
2022-08-11T23:47:53.234Z,2.00
2022-08-11T23:55:32.347Z,1.65
2022-08-11T23:57:58.315Z,1.85
